sensor_id;sensor_type;location;lat;lon;timestamp;pressure;altitude;pressure_sealevel;temperature;humidity
57056;BME280;42945;51.718;5.324;2023-04-23T00:03:07;100674.97;;;5.99;100.00
57056;BME280;42945;51.718;5.324;2023-04-23T00:08:59;100640.47;;;5.83;100.00
57056;BME280;42945;51.718;5.324;2023-04-23T00:14:48;100662.03;;;6.56;100.00
57056;BME280;42945;51.718;5.324;2023-04-23T00:20:35;100524.22;;;5.31;100.00
57056;BME280;42945;51.718;5.324;2023-04-23T00:26:23;100643.53;;;5.95;100.00
57056;BME280;42945;51.718;5.324;2023-04-23T00:36:00;100547.47;;;4.98;100.00
57056;BME280;42945;51.718;5.324;2023-04-23T00:41:48;100587.69;;;5.66;100.00
57056;BME280;42945;51.718;5.324;2023-04-23T00:47:37;100616.16;;;5.78;100.00
57056;BME280;42945;51.718;5.324;2023-04-23T00:53:27;100623.34;;;5.73;100.00
57056;BME280;42945;51.718;5.324;2023-04-23T00:59:15;100608.97;;;5.82;100.00
57056;BME280;42945;51.718;5.324;2023-04-23T01:05:04;100553.16;;;5.09;100.00
57056;BME280;42945;51.718;5.324;2023-04-23T01:10:54;100504.03;;;5.11;100.00
57056;BME280;42945;51.718;5.324;2023-04-23T01:16:41;100600.56;;;5.94;100.00
57056;BME280;42945;51.718;5.324;2023-04-23T01:22:28;100434.25;;;5.24;100.00
57056;BME280;42945;51.718;5.324;2023-04-23T01:28:18;100568.06;;;5.95;100.00
57056;BME280;42945;51.718;5.324;2023-04-23T01:37:42;100563.97;;;5.88;100.00
57056;BME280;42945;51.718;5.324;2023-04-23T01:43:31;100527.78;;;5.93;100.00
57056;BME280;42945;51.718;5.324;2023-04-23T01:49:20;100637.47;;;6.56;100.00
57056;BME280;42945;51.718;5.324;2023-04-23T01:55:08;100564.53;;;5.96;100.00
57056;BME280;42945;51.718;5.324;2023-04-23T02:00:56;100446.56;;;5.24;100.00
57056;BME280;42945;51.718;5.324;2023-04-23T02:06:46;100546.19;;;5.93;100.00
57056;BME280;42945;51.718;5.324;2023-04-23T02:12:35;100435.28;;;5.41;100.00
57056;BME280;42945;51.718;5.324;2023-04-23T02:18:23;100428.34;;;5.40;100.00
57056;BME280;42945;51.718;5.324;2023-04-23T02:24:12;100534.41;;;6.03;100.00
57056;BME280;42945;51.718;5.324;2023-04-23T02:30:01;100543.09;;;6.05;100.00
57056;BME280;42945;51.718;5.324;2023-04-23T02:39:36;100609.69;;;6.07;100.00
57056;BME280;42945;51.718;5.324;2023-04-23T02:45:27;100442.28;;;5.42;100.00
57056;BME280;42945;51.718;5.324;2023-04-23T02:51:14;100412.84;;;5.33;100.00
57056;BME280;42945;51.718;5.324;2023-04-23T02:57:04;100544.06;;;6.03;100.00
57056;BME280;42945;51.718;5.324;2023-04-23T03:02:52;100551.56;;;6.12;100.00
57056;BME280;42945;51.718;5.324;2023-04-23T03:08:40;100503.09;;;6.16;100.00
57056;BME280;42945;51.718;5.324;2023-04-23T03:14:29;100555.53;;;6.22;100.00
57056;BME280;42945;51.718;5.324;2023-04-23T03:20:17;100517.66;;;6.25;100.00
57056;BME280;42945;51.718;5.324;2023-04-23T03:26:05;100518.59;;;6.03;100.00
57056;BME280;42945;51.718;5.324;2023-04-23T03:31:53;100411.97;;;5.33;100.00
57056;BME280;42945;51.718;5.324;2023-04-23T03:41:17;100552.03;;;6.01;100.00
57056;BME280;42945;51.718;5.324;2023-04-23T03:47:05;100534.41;;;6.03;100.00
57056;BME280;42945;51.718;5.324;2023-04-23T03:52:54;100511.28;;;6.10;100.00
57056;BME280;42945;51.718;5.324;2023-04-23T03:58:42;100473.78;;;5.84;100.00
57056;BME280;42945;51.718;5.324;2023-04-23T04:04:31;100457.47;;;5.56;100.00
57056;BME280;42945;51.718;5.324;2023-04-23T04:10:20;100384.47;;;5.61;100.00
57056;BME280;42945;51.718;5.324;2023-04-23T04:16:07;100833.06;;;7.63;100.00
57056;BME280;42945;51.718;5.324;2023-04-23T04:21:55;100544.47;;;6.54;100.00
57056;BME280;42945;51.718;5.324;2023-04-23T04:27:44;100397.28;;;5.68;100.00
57056;BME280;42945;51.718;5.324;2023-04-23T04:33:33;100562.53;;;6.42;100.00
57056;BME280;42945;51.718;5.324;2023-04-23T04:43:10;100498.59;;;6.58;100.00
57056;BME280;42945;51.718;5.324;2023-04-23T04:48:58;100529.94;;;6.64;100.00
57056;BME280;42945;51.718;5.324;2023-04-23T04:54:45;100391.06;;;5.90;100.00
57056;BME280;42945;51.718;5.324;2023-04-23T05:00:35;100539.44;;;6.47;100.00
57056;BME280;42945;51.718;5.324;2023-04-23T05:06:23;100512.81;;;6.73;100.00
57056;BME280;42945;51.718;5.324;2023-04-23T05:12:11;100524.22;;;6.73;100.00
57056;BME280;42945;51.718;5.324;2023-04-23T05:18:02;100398.00;;;6.30;100.00
57056;BME280;42945;51.718;5.324;2023-04-23T05:23:51;100514.56;;;7.10;100.00
57056;BME280;42945;51.718;5.324;2023-04-23T05:29:39;100425.81;;;6.55;100.00
57056;BME280;42945;51.718;5.324;2023-04-23T05:35:28;100495.31;;;7.44;100.00
57056;BME280;42945;51.718;5.324;2023-04-23T05:45:13;100409.22;;;7.07;100.00
57056;BME280;42945;51.718;5.324;2023-04-23T05:51:01;100557.56;;;7.83;100.00
57056;BME280;42945;51.718;5.324;2023-04-23T05:57:15;100488.69;;;7.88;100.00
57056;BME280;42945;51.718;5.324;2023-04-23T06:03:03;100397.13;;;7.38;100.00
57056;BME280;42945;51.718;5.324;2023-04-23T06:08:51;100428.13;;;7.67;100.00
57056;BME280;42945;51.718;5.324;2023-04-23T06:14:39;100484.19;;;8.39;100.00
57056;BME280;42945;51.718;5.324;2023-04-23T06:20:27;100341.59;;;7.90;100.00
57056;BME280;42945;51.718;5.324;2023-04-23T06:26:17;100538.31;;;8.81;100.00
57056;BME280;42945;51.718;5.324;2023-04-23T06:32:05;100314.59;;;8.17;100.00
57056;BME280;42945;51.718;5.324;2023-04-23T06:37:53;100467.03;;;8.96;100.00
57056;BME280;42945;51.718;5.324;2023-04-23T06:47:41;100356.22;;;8.75;100.00
57056;BME280;42945;51.718;5.324;2023-04-23T06:53:29;100422.66;;;9.45;100.00
57056;BME280;42945;51.718;5.324;2023-04-23T06:59:17;100408.25;;;9.80;100.00
57056;BME280;42945;51.718;5.324;2023-04-23T07:05:06;100462.84;;;9.97;100.00
57056;BME280;42945;51.718;5.324;2023-04-23T07:10:55;100396.59;;;10.25;100.00
57056;BME280;42945;51.718;5.324;2023-04-23T07:16:42;100380.41;;;10.30;100.00
57056;BME280;42945;51.718;5.324;2023-04-23T07:22:38;100309.41;;;9.79;100.00
57056;BME280;42945;51.718;5.324;2023-04-23T07:28:27;100383.91;;;10.72;100.00
57056;BME280;42945;51.718;5.324;2023-04-23T07:34:15;100357.81;;;10.79;100.00
57056;BME280;42945;51.718;5.324;2023-04-23T07:40:04;100506.56;;;11.57;100.00
57056;BME280;42945;51.718;5.324;2023-04-23T07:49:49;100331.34;;;11.43;100.00
57056;BME280;42945;51.718;5.324;2023-04-23T07:55:38;100259.78;;;10.90;100.00
57056;BME280;42945;51.718;5.324;2023-04-23T08:01:25;100348.34;;;11.53;100.00
57056;BME280;42945;51.718;5.324;2023-04-23T08:07:14;100193.78;;;11.11;100.00
57056;BME280;42945;51.718;5.324;2023-04-23T08:13:02;100344.28;;;11.86;100.00
57056;BME280;42945;51.718;5.324;2023-04-23T08:18:49;100339.91;;;12.11;100.00
57056;BME280;42945;51.718;5.324;2023-04-23T08:24:38;100430.63;;;13.04;100.00
57056;BME280;42945;51.718;5.324;2023-04-23T08:30:26;107382.69;;;54.62;100.00
57056;BME280;42945;51.718;5.324;2023-04-23T08:36:13;100329.25;;;12.48;100.00
57056;BME280;42945;51.718;5.324;2023-04-23T08:42:08;100252.50;;;13.12;100.00
57056;BME280;42945;51.718;5.324;2023-04-23T08:51:52;100304.72;;;12.91;100.00
57056;BME280;42945;51.718;5.324;2023-04-23T08:57:42;100309.53;;;13.21;100.00
57056;BME280;42945;51.718;5.324;2023-04-23T09:03:30;100269.16;;;13.50;100.00
57056;BME280;42945;51.718;5.324;2023-04-23T09:09:20;100181.53;;;12.55;100.00
57056;BME280;42945;51.718;5.324;2023-04-23T09:15:11;100301.00;;;13.85;100.00
57056;BME280;42945;51.718;5.324;2023-04-23T09:21:00;100280.00;;;14.03;100.00
57056;BME280;42945;51.718;5.324;2023-04-23T09:26:51;100156.44;;;13.27;100.00
57056;BME280;42945;51.718;5.324;2023-04-23T09:32:42;100281.69;;;14.15;100.00
57056;BME280;42945;51.718;5.324;2023-04-23T09:38:29;100235.53;;;14.68;100.00
57056;BME280;42945;51.718;5.324;2023-04-23T09:44:20;100270.88;;;15.24;100.00
57056;BME280;42945;51.718;5.324;2023-04-23T09:54:21;100228.81;;;14.95;100.00
57056;BME280;42945;51.718;5.324;2023-04-23T10:00:17;100247.09;;;15.51;100.00
57056;BME280;42945;51.718;5.324;2023-04-23T10:06:06;100246.25;;;15.20;100.00
57056;BME280;42945;51.718;5.324;2023-04-23T10:11:59;100247.63;;;15.14;100.00
57056;BME280;42945;51.718;5.324;2023-04-23T10:17:49;100363.38;;;15.98;100.00
57056;BME280;42945;51.718;5.324;2023-04-23T10:23:38;100235.53;;;15.41;100.00
57056;BME280;42945;51.718;5.324;2023-04-23T10:29:32;100265.97;;;15.29;100.00
57056;BME280;42945;51.718;5.324;2023-04-23T10:35:20;100132.72;;;14.95;100.00
57056;BME280;42945;51.718;5.324;2023-04-23T10:41:09;100223.09;;;15.71;100.00
57056;BME280;42945;51.718;5.324;2023-04-23T10:46:58;100076.00;;;15.22;100.00
57056;BME280;42945;51.718;5.324;2023-04-23T10:57:00;100104.63;;;15.70;100.00
57056;BME280;42945;51.718;5.324;2023-04-23T11:02:50;100187.91;;;15.66;100.00
57056;BME280;42945;51.718;5.324;2023-04-23T11:08:53;100170.53;;;16.20;100.00
57056;BME280;42945;51.718;5.324;2023-04-23T11:20:34;100165.47;;;16.07;100.00
57056;BME280;42945;51.718;5.324;2023-04-23T11:26:26;100144.63;;;16.01;100.00
57056;BME280;42945;51.718;5.324;2023-04-23T11:32:16;100082.41;;;15.89;100.00
57056;BME280;42945;51.718;5.324;2023-04-23T11:38:07;100170.09;;;15.76;100.00
57056;BME280;42945;51.718;5.324;2023-04-23T11:43:56;100115.03;;;16.22;100.00
57056;BME280;42945;51.718;5.324;2023-04-23T11:49:44;100103.09;;;15.78;100.00
57056;BME280;42945;51.718;5.324;2023-04-23T11:59:33;100102.19;;;16.45;100.00
57056;BME280;42945;51.718;5.324;2023-04-23T12:05:26;100071.53;;;16.77;100.00
57056;BME280;42945;51.718;5.324;2023-04-23T12:11:15;100394.47;;;16.29;100.00
57056;BME280;42945;51.718;5.324;2023-04-23T12:17:10;100012.41;;;16.61;100.00
57056;BME280;42945;51.718;5.324;2023-04-23T12:23:03;100207.94;;;17.63;100.00
57056;BME280;42945;51.718;5.324;2023-04-23T12:28:33;99926.16;;;16.39;100.00
57056;BME280;42945;51.718;5.324;2023-04-23T12:34:21;100067.00;;;17.15;100.00
57056;BME280;42945;51.718;5.324;2023-04-23T12:40:09;100050.03;;;16.12;100.00
57056;BME280;42945;51.718;5.324;2023-04-23T12:45:57;100054.28;;;16.52;100.00
57056;BME280;42945;51.718;5.324;2023-04-23T12:51:45;100031.63;;;16.46;100.00
57056;BME280;42945;51.718;5.324;2023-04-23T13:01:27;99902.38;;;15.12;100.00
57056;BME280;42945;51.718;5.324;2023-04-23T13:07:16;99916.63;;;15.89;100.00
57056;BME280;42945;51.718;5.324;2023-04-23T13:13:03;100020.13;;;16.26;100.00
57056;BME280;42945;51.718;5.324;2023-04-23T13:18:51;99886.28;;;15.71;100.00
57056;BME280;42945;51.718;5.324;2023-04-23T13:24:40;99971.22;;;16.99;100.00
57056;BME280;42945;51.718;5.324;2023-04-23T13:30:28;99897.38;;;16.69;100.00
57056;BME280;42945;51.718;5.324;2023-04-23T13:36:17;99943.69;;;16.24;100.00
57056;BME280;42945;51.718;5.324;2023-04-23T13:42:05;99931.50;;;16.39;100.00
57056;BME280;42945;51.718;5.324;2023-04-23T13:47:54;100012.97;;;17.20;100.00
57056;BME280;42945;51.718;5.324;2023-04-23T13:53:42;99926.22;;;15.92;100.00
57056;BME280;42945;51.718;5.324;2023-04-23T13:59:29;99883.47;;;15.82;100.00
57056;BME280;42945;51.718;5.324;2023-04-23T14:05:18;99943.41;;;15.41;100.00
57056;BME280;42945;51.718;5.324;2023-04-23T14:11:05;99917.97;;;15.36;100.00
57056;BME280;42945;51.718;5.324;2023-04-23T14:16:53;99960.81;;;14.86;100.00
57056;BME280;42945;51.718;5.324;2023-04-23T14:22:42;99851.81;;;12.97;100.00
57056;BME280;42945;51.718;5.324;2023-04-23T14:28:39;99960.78;;;12.98;100.00
57056;BME280;42945;51.718;5.324;2023-04-23T14:34:27;99981.31;;;12.30;100.00
57056;BME280;42945;51.718;5.324;2023-04-23T14:40:16;100203.28;;;12.49;100.00
57056;BME280;42945;51.718;5.324;2023-04-23T14:46:05;100009.94;;;11.33;100.00
57056;BME280;42945;51.718;5.324;2023-04-23T14:51:53;99916.63;;;10.54;100.00
57056;BME280;42945;51.718;5.324;2023-04-23T14:57:42;100050.69;;;11.56;100.00
57056;BME280;42945;51.718;5.324;2023-04-23T15:03:29;100025.97;;;11.08;100.00
57056;BME280;42945;51.718;5.324;2023-04-23T15:09:18;100052.75;;;10.92;100.00
57056;BME280;42945;51.718;5.324;2023-04-23T15:21:14;100039.34;;;10.93;100.00
57056;BME280;42945;51.718;5.324;2023-04-23T15:27:02;99930.28;;;10.11;100.00
57056;BME280;42945;51.718;5.324;2023-04-23T15:32:52;100073.16;;;10.78;100.00
57056;BME280;42945;51.718;5.324;2023-04-23T15:38:41;100012.16;;;10.78;100.00
57056;BME280;42945;51.718;5.324;2023-04-23T15:44:29;100022.53;;;10.81;100.00
57056;BME280;42945;51.718;5.324;2023-04-23T15:50:18;99945.59;;;10.44;100.00
57056;BME280;42945;51.718;5.324;2023-04-23T15:56:09;100027.09;;;11.16;100.00
57056;BME280;42945;51.718;5.324;2023-04-23T16:05:44;100088.91;;;11.42;100.00
57056;BME280;42945;51.718;5.324;2023-04-23T16:11:36;100105.44;;;11.70;100.00
57056;BME280;42945;51.718;5.324;2023-04-23T16:17:23;99950.56;;;10.62;100.00
57056;BME280;42945;51.718;5.324;2023-04-23T16:23:14;99844.91;;;9.95;100.00
57056;BME280;42945;51.718;5.324;2023-04-23T16:29:02;99880.81;;;10.49;100.00
57056;BME280;42945;51.718;5.324;2023-04-23T16:34:50;99794.69;;;9.93;100.00
57056;BME280;42945;51.718;5.324;2023-04-23T16:40:38;99868.19;;;10.76;100.00
57056;BME280;42945;51.718;5.324;2023-04-23T16:46:26;99814.28;;;10.76;100.00
57056;BME280;42945;51.718;5.324;2023-04-23T16:52:17;99817.00;;;10.87;100.00
57056;BME280;42945;51.718;5.324;2023-04-23T16:58:05;100115.88;;;12.55;100.00
57056;BME280;42945;51.718;5.324;2023-04-23T17:07:28;100032.31;;;12.13;100.00
57056;BME280;42945;51.718;5.324;2023-04-23T17:13:17;99818.94;;;10.96;100.00
57056;BME280;42945;51.718;5.324;2023-04-23T17:19:05;99763.22;;;10.85;100.00
57056;BME280;42945;51.718;5.324;2023-04-23T17:24:53;99633.81;;;10.19;100.00
57056;BME280;42945;51.718;5.324;2023-04-23T17:30:40;99762.53;;;11.06;100.00
57056;BME280;42945;51.718;5.324;2023-04-23T17:36:29;99723.34;;;11.20;100.00
57056;BME280;42945;51.718;5.324;2023-04-23T17:42:17;99790.75;;;10.95;100.00
57056;BME280;42945;51.718;5.324;2023-04-23T17:48:06;99643.47;;;9.96;100.00
57056;BME280;42945;51.718;5.324;2023-04-23T17:53:55;99724.81;;;10.55;100.00
57056;BME280;42945;51.718;5.324;2023-04-23T17:59:44;99722.25;;;10.54;100.00
57056;BME280;42945;51.718;5.324;2023-04-23T18:09:08;99466.31;;;8.98;100.00
57056;BME280;42945;51.718;5.324;2023-04-23T18:14:56;99718.94;;;10.39;100.00
57056;BME280;42945;51.718;5.324;2023-04-23T18:20:44;99667.56;;;10.29;100.00
57056;BME280;42945;51.718;5.324;2023-04-23T18:26:32;99716.19;;;10.40;100.00
57056;BME280;42945;51.718;5.324;2023-04-23T18:32:20;99683.31;;;10.19;100.00
57056;BME280;42945;51.718;5.324;2023-04-23T18:38:10;99643.53;;;10.08;100.00
57056;BME280;42945;51.718;5.324;2023-04-23T18:44:04;99671.56;;;9.99;100.00
57056;BME280;42945;51.718;5.324;2023-04-23T18:49:54;99685.91;;;10.08;100.00
57056;BME280;42945;51.718;5.324;2023-04-23T18:55:43;99539.19;;;9.26;100.00
57056;BME280;42945;51.718;5.324;2023-04-23T19:01:31;99696.28;;;10.11;100.00
57056;BME280;42945;51.718;5.324;2023-04-23T19:11:06;99688.34;;;10.11;100.00
57056;BME280;42945;51.718;5.324;2023-04-23T19:16:54;99563.59;;;9.06;100.00
57056;BME280;42945;51.718;5.324;2023-04-23T19:22:43;99562.91;;;8.91;100.00
57056;BME280;42945;51.718;5.324;2023-04-23T19:28:31;99673.03;;;9.42;100.00
57056;BME280;42945;51.718;5.324;2023-04-23T19:34:19;99526.28;;;8.61;100.00
57056;BME280;42945;51.718;5.324;2023-04-23T19:40:08;99524.78;;;8.57;100.00
57056;BME280;42945;51.718;5.324;2023-04-23T19:45:57;99580.84;;;9.12;100.00
57056;BME280;42945;51.718;5.324;2023-04-23T19:51:45;99372.94;;;7.61;100.00
57056;BME280;42945;51.718;5.324;2023-04-23T19:57:33;99645.59;;;9.06;100.00
57056;BME280;42945;51.718;5.324;2023-04-23T20:03:21;99604.22;;;9.05;100.00
57056;BME280;42945;51.718;5.324;2023-04-23T20:12:44;99426.78;;;7.97;100.00
57056;BME280;42945;51.718;5.324;2023-04-23T20:18:32;99614.22;;;8.63;100.00
57056;BME280;42945;51.718;5.324;2023-04-23T20:24:23;99570.66;;;8.56;100.00
57056;BME280;42945;51.718;5.324;2023-04-23T20:30:12;99498.97;;;7.71;100.00
57056;BME280;42945;51.718;5.324;2023-04-23T20:36:01;99504.16;;;7.72;100.00
57056;BME280;42945;51.718;5.324;2023-04-23T20:41:48;99579.56;;;8.42;100.00
57056;BME280;42945;51.718;5.324;2023-04-23T20:47:38;99654.63;;;8.65;100.00
57056;BME280;42945;51.718;5.324;2023-04-23T20:53:25;99626.28;;;8.14;100.00
57056;BME280;42945;51.718;5.324;2023-04-23T20:59:13;99469.19;;;7.56;100.00
57056;BME280;42945;51.718;5.324;2023-04-23T21:05:05;99595.75;;;8.10;100.00
57056;BME280;42945;51.718;5.324;2023-04-23T21:14:41;99667.22;;;7.67;100.00
57056;BME280;42945;51.718;5.324;2023-04-23T21:20:30;99649.81;;;7.50;100.00
57056;BME280;42945;51.718;5.324;2023-04-23T21:26:17;99569.44;;;6.73;100.00
57056;BME280;42945;51.718;5.324;2023-04-23T21:32:05;99686.78;;;7.36;100.00
57056;BME280;42945;51.718;5.324;2023-04-23T21:37:54;99673.06;;;7.16;100.00
57056;BME280;42945;51.718;5.324;2023-04-23T21:43:42;99694.63;;;7.37;100.00
57056;BME280;42945;51.718;5.324;2023-04-23T21:49:30;99709.41;;;7.25;100.00
57056;BME280;42945;51.718;5.324;2023-04-23T21:55:19;99856.56;;;8.06;100.00
57056;BME280;42945;51.718;5.324;2023-04-23T22:01:07;99662.13;;;6.65;100.00
57056;BME280;42945;51.718;5.324;2023-04-23T22:06:57;99944.97;;;8.71;100.00
57056;BME280;42945;51.718;5.324;2023-04-23T22:16:43;99667.38;;;6.65;100.00
57056;BME280;42945;51.718;5.324;2023-04-23T22:22:34;99769.69;;;7.46;100.00
57056;BME280;42945;51.718;5.324;2023-04-23T22:28:22;99637.84;;;6.74;100.00
57056;BME280;42945;51.718;5.324;2023-04-23T22:34:10;100059.63;;;7.35;100.00
57056;BME280;42945;51.718;5.324;2023-04-23T22:39:58;99610.97;;;6.69;100.00
57056;BME280;42945;51.718;5.324;2023-04-23T22:45:47;99553.63;;;8.08;100.00
57056;BME280;42945;51.718;5.324;2023-04-23T22:51:35;99775.16;;;7.43;100.00
57056;BME280;42945;51.718;5.324;2023-04-23T22:57:25;99786.47;;;7.45;100.00
57056;BME280;42945;51.718;5.324;2023-04-23T23:03:14;99808.03;;;7.52;100.00
57056;BME280;42945;51.718;5.324;2023-04-23T23:09:02;99848.44;;;7.38;100.00
57056;BME280;42945;51.718;5.324;2023-04-23T23:18:44;99794.47;;;7.29;100.00
57056;BME280;42945;51.718;5.324;2023-04-23T23:24:32;99797.19;;;7.27;100.00
57056;BME280;42945;51.718;5.324;2023-04-23T23:30:21;99818.66;;;7.21;100.00
57056;BME280;42945;51.718;5.324;2023-04-23T23:36:09;99828.09;;;7.25;100.00
57056;BME280;42945;51.718;5.324;2023-04-23T23:41:57;99821.47;;;7.18;100.00
57056;BME280;42945;51.718;5.324;2023-04-23T23:47:44;99718.84;;;6.56;100.00
57056;BME280;42945;51.718;5.324;2023-04-23T23:53:33;99853.50;;;7.26;100.00
57056;BME280;42945;51.718;5.324;2023-04-23T23:59:20;99846.25;;;7.30;100.00
